createdAt,value
2023-03-20T00:00:52.190Z,51.87
2023-03-20T00:03:21.709Z,52.25
2023-03-20T00:05:52.252Z,52.11
2023-03-20T00:08:20.241Z,52.18
2023-03-20T00:10:51.060Z,52.10
2023-03-20T00:13:26.222Z,52.03
2023-03-20T00:15:56.889Z,51.73
2023-03-20T00:18:26.932Z,51.83
2023-03-20T00:20:54.222Z,51.78
2023-03-20T00:23:22.043Z,51.77
2023-03-20T00:25:49.269Z,51.63
2023-03-20T00:28:46.495Z,51.78
2023-03-20T00:31:26.866Z,51.42
2023-03-20T00:33:56.470Z,51.42
2023-03-20T00:36:24.274Z,51.63
2023-03-20T00:38:54.855Z,52.77
2023-03-20T00:41:24.278Z,51.92
2023-03-20T00:43:58.497Z,52.04
2023-03-20T00:46:31.455Z,51.68
2023-03-20T00:48:58.726Z,52.16
2023-03-20T00:51:26.110Z,51.56
2023-03-20T00:53:53.659Z,51.81
2023-03-20T00:56:42.820Z,52.39
2023-03-20T00:59:17.400Z,52.21
2023-03-20T01:01:46.498Z,51.77
2023-03-20T01:04:19.912Z,52.02
2023-03-20T01:06:52.995Z,52.21
2023-03-20T01:09:22.836Z,52.23
2023-03-20T01:11:51.097Z,52.11
2023-03-20T01:14:23.675Z,52.20
2023-03-20T01:16:51.011Z,52.25
2023-03-20T01:19:18.222Z,52.26
2023-03-20T01:21:54.996Z,52.03
2023-03-20T01:24:24.985Z,51.85
2023-03-20T01:26:55.197Z,52.06
2023-03-20T01:29:27.972Z,51.81
2023-03-20T01:31:57.753Z,51.86
2023-03-20T01:34:28.275Z,51.55
2023-03-20T01:36:59.511Z,51.82
2023-03-20T01:39:36.280Z,51.55
2023-03-20T01:42:06.172Z,51.63
2023-03-20T01:44:36.702Z,51.79
2023-03-20T01:47:16.120Z,51.67
2023-03-20T01:50:24.394Z,51.74
2023-03-20T01:53:17.460Z,51.98
2023-03-20T01:55:56.597Z,51.89
2023-03-20T01:58:36.372Z,51.85
2023-03-20T02:01:06.609Z,51.54
2023-03-20T02:03:34.875Z,51.85
2023-03-20T02:06:06.839Z,51.85
2023-03-20T02:08:54.186Z,51.91
2023-03-20T02:11:25.719Z,51.79
2023-03-20T02:13:56.178Z,52.04
2023-03-20T02:16:28.797Z,51.91
2023-03-20T02:19:19.311Z,51.84
2023-03-20T02:22:07.914Z,52.52
2023-03-20T02:24:54.687Z,52.34
2023-03-20T02:27:47.621Z,52.29
2023-03-20T02:30:37.073Z,52.02
2023-03-20T02:33:22.911Z,52.21
2023-03-20T02:36:29.137Z,52.50
2023-03-20T02:39:11.923Z,52.37
2023-03-20T02:41:42.053Z,52.27
2023-03-20T02:44:12.756Z,52.22
2023-03-20T02:46:54.430Z,52.21
2023-03-20T02:49:46.583Z,52.10
2023-03-20T02:52:24.523Z,52.19
2023-03-20T02:54:55.030Z,52.03
2023-03-20T02:57:28.093Z,52.10
2023-03-20T03:00:27.106Z,52.22
2023-03-20T03:03:18.881Z,52.47
2023-03-20T03:06:39.108Z,52.26
2023-03-20T03:09:17.679Z,52.25
2023-03-20T03:12:01.359Z,52.12
2023-03-20T03:14:29.866Z,52.17
2023-03-20T03:17:00.487Z,52.40
2023-03-20T03:19:29.756Z,51.92
2023-03-20T03:21:57.115Z,52.33
2023-03-20T03:24:44.457Z,52.24
2023-03-20T03:27:39.651Z,52.43
2023-03-20T03:30:28.300Z,52.41
2023-03-20T03:33:19.638Z,52.56
2023-03-20T03:35:50.095Z,52.59
2023-03-20T03:39:05.547Z,52.56
2023-03-20T03:41:43.059Z,52.62
2023-03-20T03:44:15.598Z,52.60
2023-03-20T03:46:52.565Z,52.72
2023-03-20T03:49:29.512Z,52.85
2023-03-20T03:52:03.894Z,52.68
2023-03-20T03:54:43.922Z,52.80
2023-03-20T03:57:54.389Z,52.90
2023-03-20T04:00:25.520Z,52.71
2023-03-20T04:02:56.321Z,52.40
2023-03-20T04:05:27.056Z,52.57
2023-03-20T04:07:56.438Z,52.43
2023-03-20T04:10:24.084Z,52.40
2023-03-20T04:12:51.344Z,52.37
2023-03-20T04:15:20.540Z,52.41
2023-03-20T04:17:48.468Z,52.14
2023-03-20T04:20:17.612Z,52.16
2023-03-20T04:22:46.941Z,52.37
2023-03-20T04:25:20.640Z,52.57
2023-03-20T04:27:49.695Z,52.61
2023-03-20T04:30:39.666Z,52.35
2023-03-20T04:33:34.898Z,52.24
2023-03-20T04:36:21.721Z,52.61
2023-03-20T04:38:54.604Z,52.30
2023-03-20T04:41:23.708Z,52.22
2023-03-20T04:43:54.671Z,52.70
2023-03-20T04:46:23.668Z,52.28
2023-03-20T04:48:54.382Z,51.92
2023-03-20T04:51:22.301Z,51.96
2023-03-20T04:53:51.387Z,51.96
2023-03-20T04:56:19.335Z,52.34
2023-03-20T04:58:50.858Z,51.88
2023-03-20T05:01:20.997Z,51.88
2023-03-20T05:03:48.459Z,52.24
2023-03-20T05:06:21.220Z,51.88
2023-03-20T05:08:54.655Z,52.00
2023-03-20T05:11:22.275Z,51.55
2023-03-20T05:13:56.551Z,51.79
2023-03-20T05:16:45.023Z,51.66
2023-03-20T05:19:31.290Z,51.70
2023-03-20T05:22:19.432Z,51.54
2023-03-20T05:25:22.409Z,51.53
2023-03-20T05:28:22.912Z,51.77
2023-03-20T05:31:10.357Z,51.86
2023-03-20T05:33:56.313Z,51.53
2023-03-20T05:36:49.517Z,51.78
2023-03-20T05:39:28.486Z,51.82
2023-03-20T05:42:34.129Z,51.94
2023-03-20T05:45:36.676Z,51.84
2023-03-20T05:48:30.121Z,51.57
2023-03-20T05:51:23.158Z,51.80
2023-03-20T05:54:10.611Z,51.51
2023-03-20T05:56:59.032Z,51.71
2023-03-20T05:59:46.765Z,51.62
2023-03-20T06:02:32.501Z,51.52
2023-03-20T06:05:12.266Z,51.24
2023-03-20T06:07:50.562Z,51.28
2023-03-20T06:10:20.901Z,51.32
2023-03-20T06:12:50.368Z,51.30
2023-03-20T06:15:19.821Z,51.12
2023-03-20T06:17:55.888Z,51.48
2023-03-20T06:20:24.740Z,51.07
2023-03-20T06:22:53.098Z,51.20
2023-03-20T06:25:24.145Z,50.89
2023-03-20T06:27:54.738Z,51.42
2023-03-20T06:30:25.460Z,51.27
2023-03-20T06:32:56.936Z,51.76
2023-03-20T06:35:35.002Z,51.64
2023-03-20T06:38:02.995Z,51.54
2023-03-20T06:40:32.181Z,51.79
2023-03-20T06:43:00.442Z,51.15
2023-03-20T06:45:41.534Z,51.24
2023-03-20T06:48:24.184Z,52.04
2023-03-20T06:50:53.187Z,51.49
2023-03-20T06:53:23.018Z,51.72
2023-03-20T06:56:05.312Z,51.36
2023-03-20T06:58:35.124Z,51.67
2023-03-20T07:01:03.402Z,51.17
2023-03-20T07:03:30.768Z,50.99
2023-03-20T07:05:59.149Z,50.46
2023-03-20T07:08:29.461Z,50.37
2023-03-20T07:11:00.755Z,50.87
2023-03-20T07:13:29.664Z,50.72
2023-03-20T07:16:04.829Z,50.22
2023-03-20T07:18:38.291Z,50.41
2023-03-20T07:21:08.367Z,50.23
2023-03-20T07:23:36.682Z,50.16
2023-03-20T07:26:05.632Z,49.83
2023-03-20T07:28:34.175Z,50.08
2023-03-20T07:31:30.076Z,50.12
2023-03-20T07:34:08.289Z,49.70
2023-03-20T07:36:35.938Z,49.57
2023-03-20T07:39:11.530Z,49.48
2023-03-20T07:41:41.585Z,49.55
2023-03-20T07:44:11.140Z,49.14
2023-03-20T07:46:54.392Z,49.52
2023-03-20T07:49:23.784Z,49.39
2023-03-20T07:51:51.536Z,49.31
2023-03-20T07:54:19.398Z,49.47
2023-03-20T07:56:53.605Z,49.17
2023-03-20T07:59:20.966Z,49.08
2023-03-20T08:01:51.006Z,48.76
2023-03-20T08:04:22.216Z,48.36
2023-03-20T08:06:50.927Z,48.76
2023-03-20T08:09:19.212Z,47.85
2023-03-20T08:11:46.318Z,47.63
2023-03-20T08:14:13.692Z,47.12
2023-03-20T08:16:41.043Z,46.28
2023-03-20T08:19:08.666Z,45.53
2023-03-20T08:21:36.187Z,44.90
2023-03-20T08:24:04.385Z,44.35
2023-03-20T08:26:34.692Z,43.58
2023-03-20T08:29:01.824Z,44.00
2023-03-20T08:31:29.064Z,44.03
2023-03-20T08:33:57.182Z,43.50
2023-03-20T08:36:24.804Z,42.77
2023-03-20T08:38:52.137Z,41.85
2023-03-20T08:41:22.712Z,40.71
2023-03-20T08:43:52.233Z,39.36
2023-03-20T08:46:19.542Z,38.91
2023-03-20T08:48:46.634Z,39.42
2023-03-20T08:51:16.996Z,38.36
2023-03-20T08:53:44.305Z,38.76
2023-03-20T08:56:12.274Z,37.15
2023-03-20T08:58:39.417Z,37.82
2023-03-20T09:01:08.703Z,36.46
2023-03-20T09:03:36.947Z,36.52
2023-03-20T09:06:11.310Z,35.51
2023-03-20T09:08:38.956Z,35.64
2023-03-20T09:11:07.350Z,34.15
2023-03-20T09:13:37.841Z,33.57
2023-03-20T09:16:07.932Z,33.39
2023-03-20T09:18:35.055Z,32.73
2023-03-20T09:21:04.526Z,33.45
2023-03-20T09:23:32.409Z,33.53
2023-03-20T09:25:59.685Z,33.43
2023-03-20T09:28:27.491Z,32.50
2023-03-20T09:30:59.277Z,30.72
2023-03-20T09:33:27.160Z,34.34
2023-03-20T09:35:54.724Z,35.03
2023-03-20T09:38:27.919Z,35.01
2023-03-20T09:41:27.562Z,33.99
2023-03-20T09:44:03.935Z,34.44
2023-03-20T09:47:19.476Z,34.00
2023-03-20T09:50:26.123Z,34.08
2023-03-20T09:53:27.908Z,34.26
2023-03-20T09:55:56.730Z,34.69
2023-03-20T09:58:32.525Z,33.57
2023-03-20T10:01:04.910Z,33.22
2023-03-20T10:03:49.824Z,33.20
2023-03-20T10:06:18.164Z,33.57
2023-03-20T10:08:46.474Z,33.28
2023-03-20T10:11:24.747Z,32.63
2023-03-20T10:13:57.993Z,31.91
2023-03-20T10:17:09.486Z,31.49
2023-03-20T10:19:59.242Z,31.17
2023-03-20T10:22:46.255Z,30.77
2023-03-20T10:25:30.751Z,29.92
2023-03-20T10:28:20.418Z,29.47
2023-03-20T10:31:26.099Z,30.10
2023-03-20T10:34:15.013Z,30.78
2023-03-20T10:36:54.361Z,31.79
2023-03-20T10:39:34.298Z,31.75
2023-03-20T10:42:05.167Z,31.85
2023-03-20T10:44:39.470Z,33.29
2023-03-20T10:47:13.297Z,33.92
2023-03-20T10:49:47.847Z,33.82
2023-03-20T10:52:31.349Z,34.57
2023-03-20T10:55:08.784Z,35.85
2023-03-20T10:57:42.483Z,35.09
2023-03-20T11:00:28.233Z,34.63
2023-03-20T11:02:57.829Z,35.01
2023-03-20T11:05:38.465Z,33.44
2023-03-20T11:08:14.186Z,34.10
2023-03-20T11:10:51.403Z,34.12
2023-03-20T11:13:46.439Z,33.44
2023-03-20T11:16:35.557Z,33.70
2023-03-20T11:19:09.128Z,33.80
2023-03-20T11:21:51.101Z,34.03
2023-03-20T11:25:00.465Z,34.47
2023-03-20T11:27:38.440Z,33.29
2023-03-20T11:30:27.688Z,33.37
2023-03-20T11:33:03.863Z,33.12
2023-03-20T11:35:34.803Z,33.45
2023-03-20T11:38:18.677Z,34.12
2023-03-20T11:40:52.585Z,34.35
2023-03-20T11:43:22.944Z,33.72
2023-03-20T11:46:02.891Z,33.84
2023-03-20T11:48:42.350Z,34.24
2023-03-20T11:51:15.106Z,34.66
2023-03-20T11:53:48.450Z,33.93
2023-03-20T11:56:24.663Z,33.57
2023-03-20T11:59:35.228Z,33.40
2023-03-20T12:02:44.255Z,34.52
2023-03-20T12:05:40.112Z,34.00
2023-03-20T12:08:18.913Z,33.55
2023-03-20T12:11:01.806Z,33.74
2023-03-20T12:13:40.618Z,33.69
2023-03-20T12:16:31.152Z,33.22
2023-03-20T12:19:19.680Z,34.00
2023-03-20T12:22:45.441Z,34.25
2023-03-20T12:25:31.291Z,33.83
2023-03-20T12:28:11.184Z,33.35
2023-03-20T12:30:56.756Z,34.55
2023-03-20T12:33:57.722Z,35.05
2023-03-20T12:36:44.275Z,36.73
2023-03-20T12:39:51.125Z,34.98
2023-03-20T12:42:41.201Z,35.05
2023-03-20T12:45:21.105Z,36.01
2023-03-20T12:48:26.233Z,36.24
2023-03-20T12:51:20.760Z,35.30
2023-03-20T12:54:22.637Z,34.34
2023-03-20T12:57:22.935Z,33.99
2023-03-20T13:00:08.664Z,34.50
2023-03-20T13:03:12.163Z,33.83
2023-03-20T13:06:22.977Z,34.27
2023-03-20T13:12:27.956Z,33.26
2023-03-20T13:15:23.154Z,32.98
2023-03-20T13:18:44.632Z,34.24
2023-03-20T13:21:27.477Z,34.18
2023-03-20T13:24:30.157Z,34.02
2023-03-20T13:27:33.546Z,34.74
2023-03-20T13:30:14.076Z,35.21
2023-03-20T13:33:19.600Z,35.51
2023-03-20T13:36:24.569Z,36.44
2023-03-20T13:39:20.966Z,35.86
2023-03-20T13:42:01.728Z,36.00
2023-03-20T13:44:35.172Z,35.31
2023-03-20T13:47:11.884Z,36.33
2023-03-20T13:49:59.072Z,37.79
2023-03-20T13:52:45.389Z,38.77
2023-03-20T13:55:27.926Z,37.56
2023-03-20T13:58:39.689Z,36.64
2023-03-20T14:01:38.620Z,37.16
2023-03-20T14:04:32.400Z,37.93
2023-03-20T14:07:38.212Z,36.82
2023-03-20T14:10:45.417Z,37.54
2023-03-20T14:13:20.824Z,37.42
2023-03-20T14:16:05.639Z,38.38
2023-03-20T14:19:04.278Z,38.85
2023-03-20T14:21:37.027Z,39.33
2023-03-20T14:24:33.415Z,39.79
2023-03-20T14:27:36.711Z,41.35
2023-03-20T14:31:10.627Z,39.80
2023-03-20T14:34:13.403Z,39.72
2023-03-20T14:37:31.640Z,40.86
2023-03-20T14:40:21.122Z,42.52
2023-03-20T14:42:55.655Z,41.73
2023-03-20T14:45:51.708Z,41.87
2023-03-20T14:48:46.551Z,40.34
2023-03-20T14:51:48.457Z,40.41
2023-03-20T14:54:27.771Z,40.70
2023-03-20T14:57:27.425Z,42.20
2023-03-20T15:00:00.463Z,41.58
2023-03-20T15:02:37.109Z,41.88
2023-03-20T15:05:46.801Z,42.63
2023-03-20T15:08:30.595Z,43.21
2023-03-20T15:10:59.549Z,43.81
2023-03-20T15:13:34.462Z,43.79
2023-03-20T15:16:09.525Z,43.01
2023-03-20T15:18:53.734Z,42.75
2023-03-20T15:21:48.747Z,43.84
2023-03-20T15:24:33.229Z,43.84
2023-03-20T15:27:14.075Z,42.71
2023-03-20T15:29:53.004Z,43.61
2023-03-20T15:32:36.972Z,44.38
2023-03-20T15:35:21.501Z,44.85
2023-03-20T15:37:56.429Z,44.15
2023-03-20T15:40:47.725Z,44.38
2023-03-20T15:43:38.454Z,44.04
2023-03-20T15:46:25.766Z,44.00
2023-03-20T15:49:00.512Z,43.51
2023-03-20T15:51:39.342Z,44.80
2023-03-20T15:54:08.261Z,45.18
2023-03-20T15:56:36.386Z,45.01
2023-03-20T15:59:05.689Z,44.86
2023-03-20T16:01:37.174Z,45.85
2023-03-20T16:04:04.764Z,45.79
2023-03-20T16:06:49.289Z,45.94
2023-03-20T16:09:17.867Z,47.06
2023-03-20T16:11:51.446Z,46.47
2023-03-20T16:14:34.748Z,45.18
2023-03-20T16:17:06.331Z,46.20
2023-03-20T16:19:34.233Z,46.42
2023-03-20T16:22:32.736Z,46.72
2023-03-20T16:25:02.323Z,46.10
2023-03-20T16:27:35.146Z,46.86
2023-03-20T16:30:25.377Z,46.00
2023-03-20T16:33:09.155Z,46.59
2023-03-20T16:35:57.814Z,47.27
2023-03-20T16:38:41.021Z,46.52
2023-03-20T16:41:38.224Z,47.56
2023-03-20T16:44:36.609Z,47.34
2023-03-20T16:47:13.869Z,48.48
2023-03-20T16:49:47.239Z,48.16
2023-03-20T16:52:19.745Z,47.92
2023-03-20T16:54:55.618Z,48.08
2023-03-20T16:57:25.591Z,47.96
2023-03-20T17:00:21.368Z,48.58
2023-03-20T17:03:14.647Z,48.26
2023-03-20T17:06:17.333Z,48.07
2023-03-20T17:08:57.054Z,48.25
2023-03-20T17:11:39.980Z,49.71
2023-03-20T17:14:09.869Z,49.19
2023-03-20T17:16:44.623Z,49.49
2023-03-20T17:19:22.463Z,49.34
2023-03-20T17:21:57.479Z,48.46
2023-03-20T17:24:28.158Z,49.28
2023-03-20T17:27:05.655Z,48.70
2023-03-20T17:29:37.353Z,50.43
2023-03-20T17:32:29.199Z,50.02
2023-03-20T17:35:00.472Z,49.25
2023-03-20T17:37:38.662Z,49.53
2023-03-20T17:40:23.002Z,50.51
2023-03-20T17:42:54.378Z,49.96
2023-03-20T17:45:33.806Z,49.09
2023-03-20T17:48:33.876Z,49.63
2023-03-20T17:51:11.363Z,49.32
2023-03-20T17:53:38.654Z,49.37
2023-03-20T17:56:16.157Z,50.17
2023-03-20T17:58:49.253Z,49.77
2023-03-20T18:01:19.355Z,49.53
2023-03-20T18:03:47.762Z,49.65
2023-03-20T18:06:33.967Z,50.07
2023-03-20T18:09:02.111Z,50.38
2023-03-20T18:11:44.386Z,50.93
2023-03-20T18:14:12.534Z,50.42
2023-03-20T18:16:51.493Z,50.68
2023-03-20T18:19:30.879Z,50.97
2023-03-20T18:21:58.949Z,51.06
2023-03-20T18:24:27.483Z,51.26
2023-03-20T18:26:55.613Z,51.64
2023-03-20T18:29:25.989Z,51.88
2023-03-20T18:31:53.856Z,52.05
2023-03-20T18:34:23.872Z,51.31
2023-03-20T18:36:52.008Z,51.83
2023-03-20T18:39:33.941Z,52.31
2023-03-20T18:42:01.275Z,51.08
2023-03-20T18:44:31.447Z,52.85
2023-03-20T18:46:58.753Z,52.53
2023-03-20T18:49:25.885Z,52.21
2023-03-20T18:52:04.435Z,52.47
2023-03-20T18:54:38.960Z,52.12
2023-03-20T18:57:06.494Z,52.75
2023-03-20T18:59:37.196Z,53.22
2023-03-20T19:02:04.383Z,53.01
2023-03-20T19:04:33.234Z,53.00
2023-03-20T19:07:02.813Z,52.42
2023-03-20T19:09:33.244Z,53.07
2023-03-20T19:12:00.467Z,52.79
2023-03-20T19:14:30.071Z,53.72
2023-03-20T19:16:57.392Z,53.44
2023-03-20T19:19:24.859Z,53.39
2023-03-20T19:21:52.282Z,52.69
2023-03-20T19:24:21.888Z,52.98
2023-03-20T19:26:49.396Z,53.43
2023-03-20T19:29:18.241Z,53.98
2023-03-20T19:31:48.251Z,54.59
2023-03-20T19:34:44.452Z,54.56
2023-03-20T19:37:07.222Z,54.86
2023-03-20T19:39:34.491Z,53.61
2023-03-20T19:42:19.931Z,53.53
2023-03-20T19:44:49.000Z,54.27
2023-03-20T19:47:19.348Z,54.32
2023-03-20T19:49:48.005Z,54.03
2023-03-20T19:52:32.400Z,54.87
2023-03-20T19:55:05.681Z,55.15
2023-03-20T19:57:33.178Z,54.09
2023-03-20T20:01:11.070Z,53.86
2023-03-20T20:03:08.509Z,53.51
2023-03-20T20:05:37.891Z,53.54
2023-03-20T20:08:24.381Z,53.62
2023-03-20T20:10:56.718Z,54.27
2023-03-20T20:14:03.602Z,54.11
2023-03-20T20:16:35.171Z,54.69
2023-03-20T20:19:11.842Z,53.63
2023-03-20T20:24:47.631Z,54.38
2023-03-20T20:27:18.546Z,54.86
2023-03-20T20:30:06.449Z,55.42
2023-03-20T20:32:42.172Z,54.54
2023-03-20T20:35:55.825Z,54.84
2023-03-20T20:41:20.823Z,54.95
2023-03-20T20:44:16.094Z,55.34
2023-03-20T20:46:46.861Z,54.93
2023-03-20T20:49:19.931Z,54.96
2023-03-20T20:51:51.148Z,56.00
2023-03-20T20:54:21.661Z,56.26
2023-03-20T20:56:53.456Z,55.15
2023-03-20T20:59:26.816Z,54.90
2023-03-20T21:01:54.906Z,55.31
2023-03-20T21:04:24.004Z,55.57
2023-03-20T21:07:11.407Z,55.82
2023-03-20T21:09:46.023Z,54.96
2023-03-20T21:12:33.545Z,54.89
2023-03-20T21:15:07.283Z,55.33
2023-03-20T21:17:59.465Z,55.82
2023-03-20T21:20:27.601Z,55.88
2023-03-20T21:23:24.916Z,55.84
2023-03-20T21:26:07.255Z,56.13
2023-03-20T21:28:38.124Z,55.07
2023-03-20T21:31:25.198Z,56.00
2023-03-20T21:33:56.885Z,56.19
2023-03-20T21:36:27.862Z,55.73
2023-03-20T21:39:08.741Z,56.29
2023-03-20T21:41:51.825Z,55.60
2023-03-20T21:44:48.346Z,55.10
2023-03-20T21:48:09.305Z,55.09
2023-03-20T21:50:46.581Z,55.45
2023-03-20T21:54:17.677Z,55.12
2023-03-20T21:56:51.423Z,55.68
2023-03-20T21:59:53.848Z,55.65
2023-03-20T22:02:14.029Z,55.36
2023-03-20T22:08:46.865Z,55.77
2023-03-20T22:11:31.420Z,55.48
2023-03-20T22:20:33.283Z,54.77
2023-03-20T22:32:47.460Z,55.03
2023-03-20T22:35:54.392Z,55.67
2023-03-20T22:44:50.074Z,55.95
2023-03-20T22:47:09.574Z,56.15
2023-03-20T22:49:57.328Z,55.84
2023-03-20T22:52:38.323Z,55.58
2023-03-20T22:55:15.794Z,56.00
2023-03-20T22:58:03.995Z,55.64
2023-03-20T23:00:45.135Z,55.85
2023-03-20T23:03:33.390Z,55.87
2023-03-20T23:06:24.605Z,56.77
2023-03-20T23:08:58.313Z,55.67
2023-03-20T23:11:33.498Z,55.89
2023-03-20T23:14:18.155Z,55.71
2023-03-20T23:16:53.540Z,55.80
2023-03-20T23:19:37.776Z,55.91
2023-03-20T23:22:16.207Z,56.22
2023-03-20T23:24:57.295Z,56.27
2023-03-20T23:27:33.370Z,56.57
2023-03-20T23:30:05.990Z,55.95
2023-03-20T23:32:55.777Z,55.80
2023-03-20T23:36:21.483Z,55.55
2023-03-20T23:39:11.717Z,55.24
2023-03-20T23:44:27.320Z,54.55
2023-03-20T23:47:03.338Z,54.48
2023-03-20T23:49:37.535Z,54.49
2023-03-20T23:52:07.357Z,53.97
2023-03-20T23:54:40.272Z,53.59
2023-03-20T23:57:07.750Z,53.34
2023-03-20T23:59:41.050Z,52.79
